createdAt,value
2022-08-12T00:00:32.950Z,0.00
2022-08-12T00:02:03.738Z,0.00
2022-08-12T00:02:33.018Z,0.00
2022-08-12T00:03:33.003Z,0.00
2022-08-12T00:04:32.935Z,0.00
2022-08-12T00:05:32.910Z,0.00
2022-08-12T00:06:32.904Z,0.00
2022-08-12T00:07:32.915Z,0.00
2022-08-12T00:08:36.851Z,0.00
2022-08-12T00:09:32.876Z,0.00
2022-08-12T00:10:32.881Z,0.00
2022-08-12T00:11:32.858Z,0.00
2022-08-12T00:12:32.847Z,0.00
2022-08-12T00:13:32.879Z,0.00
2022-08-12T00:14:32.867Z,0.00
2022-08-12T00:15:32.823Z,0.00
2022-08-12T00:16:32.810Z,0.00
2022-08-12T00:17:32.805Z,0.00
2022-08-12T00:18:32.860Z,0.00
2022-08-12T00:19:32.789Z,0.00
2022-08-12T00:20:32.801Z,0.00
2022-08-12T00:21:32.772Z,0.00
2022-08-12T00:22:32.762Z,0.00
2022-08-12T00:23:33.546Z,0.00
2022-08-12T00:24:32.765Z,0.00
2022-08-12T00:26:05.723Z,0.00
2022-08-12T00:26:32.722Z,0.00
2022-08-12T00:27:43.837Z,0.00
2022-08-12T00:28:32.706Z,0.00
2022-08-12T00:29:32.700Z,0.00
2022-08-12T00:30:32.739Z,0.00
2022-08-12T00:31:32.684Z,0.00
2022-08-12T00:32:36.199Z,0.00
2022-08-12T00:33:33.985Z,0.00
2022-08-12T00:34:32.653Z,0.00
2022-08-12T00:35:36.503Z,0.00
2022-08-12T00:36:35.922Z,0.00
2022-08-12T00:37:32.628Z,0.00
2022-08-12T00:38:32.623Z,0.00
2022-08-12T00:39:32.637Z,0.00
2022-08-12T00:40:32.606Z,0.00
2022-08-12T00:41:32.636Z,0.00
2022-08-12T00:42:32.588Z,0.00
2022-08-12T00:43:32.597Z,0.00
2022-08-12T00:44:32.571Z,0.00
2022-08-12T00:45:32.566Z,0.00
2022-08-12T00:46:32.549Z,0.00
2022-08-12T00:47:32.588Z,0.00
2022-08-12T00:48:32.529Z,0.00
2022-08-12T00:49:32.524Z,0.00
2022-08-12T00:50:32.516Z,0.00
2022-08-12T00:51:32.509Z,0.00
2022-08-12T00:52:32.495Z,0.00
2022-08-12T00:53:32.519Z,0.00
2022-08-12T00:54:32.486Z,0.00
2022-08-12T00:55:32.470Z,0.00
2022-08-12T00:56:32.462Z,0.00
2022-08-12T00:57:32.460Z,0.00
2022-08-12T00:58:32.441Z,0.00
2022-08-12T00:59:32.438Z,0.00
2022-08-12T01:00:32.432Z,0.00
2022-08-12T01:02:02.350Z,0.00
2022-08-12T01:02:32.438Z,0.00
2022-08-12T01:03:32.403Z,0.00
2022-08-12T01:04:32.445Z,0.00
2022-08-12T01:05:32.381Z,0.00
2022-08-12T01:06:32.374Z,0.00
2022-08-12T01:07:32.365Z,0.00
2022-08-12T01:08:32.356Z,0.00
2022-08-12T01:09:32.349Z,0.00
2022-08-12T01:10:32.920Z,0.00
2022-08-12T01:11:32.329Z,0.00
2022-08-12T01:12:32.323Z,0.00
2022-08-12T01:13:32.335Z,0.00
2022-08-12T01:14:32.304Z,0.00
2022-08-12T01:15:32.292Z,0.00
2022-08-12T01:16:32.279Z,0.00
2022-08-12T01:17:32.288Z,0.00
2022-08-12T01:18:32.268Z,0.00
2022-08-12T01:19:32.263Z,0.00
2022-08-12T01:20:32.246Z,0.00
2022-08-12T01:21:32.239Z,0.00
2022-08-12T01:22:32.226Z,0.00
2022-08-12T01:23:32.307Z,0.00
2022-08-12T01:24:32.259Z,0.00
2022-08-12T01:25:32.201Z,0.00
2022-08-12T01:26:32.200Z,0.00
2022-08-12T01:27:32.193Z,0.00
2022-08-12T01:28:32.171Z,0.00
2022-08-12T01:29:32.954Z,0.00
2022-08-12T01:30:32.153Z,0.00
2022-08-12T01:31:32.146Z,0.00
2022-08-12T01:32:32.136Z,0.00
2022-08-12T01:33:32.132Z,0.00
2022-08-12T01:34:36.225Z,0.00
2022-08-12T01:35:32.119Z,0.00
2022-08-12T01:36:32.143Z,0.00
2022-08-12T01:37:32.090Z,0.00
2022-08-12T01:38:32.078Z,0.00
2022-08-12T01:39:32.194Z,0.00
2022-08-12T01:40:37.399Z,0.00
2022-08-12T01:41:32.086Z,0.00
2022-08-12T01:42:32.042Z,0.00
2022-08-12T01:43:32.036Z,0.00
2022-08-12T01:44:32.051Z,0.00
2022-08-12T01:45:43.077Z,0.00
2022-08-12T01:46:32.051Z,0.00
2022-08-12T01:47:31.999Z,0.00
2022-08-12T01:48:31.984Z,0.00
2022-08-12T01:49:32.010Z,0.00
2022-08-12T01:50:31.971Z,0.00
2022-08-12T01:52:15.508Z,0.00
2022-08-12T01:52:31.965Z,0.00
2022-08-12T01:53:31.939Z,0.00
2022-08-12T01:54:31.929Z,0.00
2022-08-12T01:55:31.948Z,0.00
2022-08-12T01:56:31.939Z,0.00
2022-08-12T01:57:57.821Z,0.00
2022-08-12T01:58:32.032Z,0.00
2022-08-12T01:59:31.883Z,0.00
2022-08-12T02:00:36.061Z,0.00
2022-08-12T02:01:31.913Z,0.00
2022-08-12T02:02:31.953Z,0.00
2022-08-12T02:03:31.844Z,0.00
2022-08-12T02:04:31.833Z,0.00
2022-08-12T02:05:33.300Z,0.00
2022-08-12T02:06:31.813Z,0.00
2022-08-12T02:07:31.809Z,0.00
2022-08-12T02:08:31.831Z,0.00
2022-08-12T02:09:31.807Z,0.00
2022-08-12T02:10:51.190Z,0.00
2022-08-12T02:11:31.774Z,0.00
2022-08-12T02:12:31.757Z,0.00
2022-08-12T02:13:48.242Z,0.00
2022-08-12T02:14:31.749Z,0.00
2022-08-12T02:15:32.557Z,0.00
2022-08-12T02:16:31.718Z,0.00
2022-08-12T02:17:54.757Z,0.00
2022-08-12T02:18:31.700Z,0.00
2022-08-12T02:19:31.692Z,0.00
2022-08-12T02:20:35.129Z,0.00
2022-08-12T02:21:31.671Z,0.00
2022-08-12T02:22:31.693Z,0.00
2022-08-12T02:23:31.665Z,0.00
2022-08-12T02:24:31.668Z,0.00
2022-08-12T02:25:31.630Z,0.00
2022-08-12T02:26:31.622Z,0.00
2022-08-12T02:27:31.619Z,0.00
2022-08-12T02:28:31.601Z,0.00
2022-08-12T02:29:31.621Z,0.00
2022-08-12T02:30:38.371Z,0.00
2022-08-12T02:31:31.569Z,0.00
2022-08-12T02:32:31.601Z,0.00
2022-08-12T02:33:31.553Z,0.00
2022-08-12T02:34:31.543Z,0.00
2022-08-12T02:35:31.565Z,0.00
2022-08-12T02:36:31.520Z,0.00
2022-08-12T02:37:31.515Z,0.00
2022-08-12T02:38:31.502Z,0.00
2022-08-12T02:39:31.513Z,0.00
2022-08-12T02:40:31.508Z,0.00
2022-08-12T02:41:31.498Z,0.00
2022-08-12T02:42:31.496Z,0.00
2022-08-12T02:43:31.453Z,0.00
2022-08-12T02:44:31.450Z,0.00
2022-08-12T02:45:31.428Z,0.00
2022-08-12T02:46:31.419Z,0.00
2022-08-12T02:47:59.360Z,0.00
2022-08-12T02:48:31.401Z,0.00
2022-08-12T02:49:31.389Z,0.00
2022-08-12T02:50:31.384Z,0.00
2022-08-12T02:51:31.373Z,0.00
2022-08-12T02:52:31.419Z,0.00
2022-08-12T02:53:31.345Z,0.00
2022-08-12T02:54:31.346Z,0.00
2022-08-12T02:55:34.771Z,0.00
2022-08-12T02:56:31.377Z,0.00
2022-08-12T02:57:31.315Z,0.00
2022-08-12T02:58:33.301Z,0.00
2022-08-12T02:59:31.283Z,0.00
2022-08-12T03:00:31.280Z,0.00
2022-08-12T03:01:31.330Z,0.00
2022-08-12T03:02:31.370Z,0.00
2022-08-12T03:03:31.248Z,0.00
2022-08-12T03:04:31.235Z,0.00
2022-08-12T03:05:31.222Z,0.00
2022-08-12T03:06:31.216Z,0.00
2022-08-12T03:07:49.354Z,0.00
2022-08-12T03:08:32.150Z,0.00
2022-08-12T03:09:43.084Z,0.00
2022-08-12T03:10:37.595Z,0.00
2022-08-12T03:11:31.159Z,0.00
2022-08-12T03:12:34.082Z,0.00
2022-08-12T03:13:31.143Z,0.00
2022-08-12T03:14:31.133Z,0.00
2022-08-12T03:15:31.140Z,0.00
2022-08-12T03:16:33.186Z,0.00
2022-08-12T03:17:31.099Z,0.00
2022-08-12T03:18:31.097Z,0.00
2022-08-12T03:19:31.078Z,0.00
2022-08-12T03:20:31.070Z,0.00
2022-08-12T03:21:57.918Z,0.00
2022-08-12T03:22:31.147Z,0.00
2022-08-12T03:23:31.455Z,0.00
2022-08-12T03:24:31.033Z,0.00
2022-08-12T03:25:31.014Z,0.00
2022-08-12T03:26:31.006Z,0.00
2022-08-12T03:27:30.994Z,0.00
2022-08-12T03:28:31.144Z,0.00
2022-08-12T03:29:30.972Z,0.00
2022-08-12T03:30:30.966Z,0.00
2022-08-12T03:31:30.953Z,0.00
2022-08-12T03:32:35.820Z,0.00
2022-08-12T03:33:30.934Z,0.00
2022-08-12T03:34:30.931Z,0.00
2022-08-12T03:35:40.993Z,0.00
2022-08-12T03:36:30.906Z,0.00
2022-08-12T03:37:30.888Z,0.00
2022-08-12T03:38:30.894Z,0.00
2022-08-12T03:39:36.434Z,0.00
2022-08-12T03:40:30.869Z,0.00
2022-08-12T03:41:30.847Z,0.00
2022-08-12T03:42:30.876Z,0.00
2022-08-12T03:43:30.826Z,0.00
2022-08-12T03:44:30.853Z,0.00
2022-08-12T03:45:30.803Z,0.00
2022-08-12T03:46:30.800Z,0.00
2022-08-12T03:47:30.793Z,0.00
2022-08-12T03:48:30.778Z,0.00
2022-08-12T03:49:30.762Z,0.00
2022-08-12T03:50:30.756Z,0.00
2022-08-12T03:51:30.772Z,0.00
2022-08-12T03:52:30.796Z,0.00
2022-08-12T03:53:30.718Z,0.00
2022-08-12T03:54:30.709Z,0.00
2022-08-12T03:55:30.728Z,0.00
2022-08-12T03:56:30.690Z,0.00
2022-08-12T03:57:30.744Z,0.00
2022-08-12T03:58:30.667Z,0.00
2022-08-12T03:59:30.661Z,0.00
2022-08-12T04:00:30.647Z,0.00
2022-08-12T04:01:30.751Z,0.00
2022-08-12T04:02:30.670Z,0.00
2022-08-12T04:03:30.642Z,0.00
2022-08-12T04:04:30.604Z,0.00
2022-08-12T04:05:54.503Z,0.00
2022-08-12T04:06:34.409Z,0.00
2022-08-12T04:07:30.569Z,0.00
2022-08-12T04:08:30.598Z,0.00
2022-08-12T04:09:30.548Z,0.00
2022-08-12T04:10:30.540Z,0.00
2022-08-12T04:11:32.271Z,0.00
2022-08-12T04:12:32.832Z,0.00
2022-08-12T04:13:30.505Z,0.00
2022-08-12T04:14:30.493Z,0.00
2022-08-12T04:15:30.484Z,0.00
2022-08-12T04:16:30.473Z,0.00
2022-08-12T04:17:30.490Z,0.00
2022-08-12T04:18:30.455Z,0.00
2022-08-12T04:19:30.439Z,0.00
2022-08-12T04:20:30.428Z,0.00
2022-08-12T04:21:30.417Z,0.00
2022-08-12T04:22:30.898Z,0.00
2022-08-12T04:23:30.399Z,0.00
2022-08-12T04:24:30.421Z,0.00
2022-08-12T04:25:30.376Z,0.00
2022-08-12T04:26:30.363Z,0.00
2022-08-12T04:27:30.370Z,0.00
2022-08-12T04:28:30.371Z,0.00
2022-08-12T04:30:30.377Z,0.00
2022-08-12T04:30:33.639Z,0.00
2022-08-12T04:31:30.308Z,0.00
2022-08-12T04:32:30.299Z,0.00
2022-08-12T04:33:30.290Z,0.00
2022-08-12T04:34:30.279Z,0.00
2022-08-12T04:35:30.270Z,0.00
2022-08-12T04:36:30.253Z,0.00
2022-08-12T04:37:30.256Z,0.00
2022-08-12T04:38:30.234Z,0.00
2022-08-12T04:39:30.479Z,0.00
2022-08-12T04:40:30.280Z,0.00
2022-08-12T04:41:30.197Z,0.00
2022-08-12T04:42:30.188Z,0.00
2022-08-12T04:43:59.747Z,0.00
2022-08-12T04:44:30.165Z,0.00
2022-08-12T04:45:30.154Z,0.00
2022-08-12T04:46:33.651Z,0.00
2022-08-12T04:47:30.130Z,0.00
2022-08-12T04:48:30.119Z,0.00
2022-08-12T04:49:30.104Z,0.00
2022-08-12T04:50:36.158Z,0.00
2022-08-12T04:51:30.085Z,0.00
2022-08-12T04:52:34.731Z,0.00
2022-08-12T04:53:30.061Z,0.00
2022-08-12T04:54:30.059Z,0.00
2022-08-12T04:55:30.046Z,5.63
2022-08-12T04:56:30.037Z,5.63
2022-08-12T04:57:30.021Z,5.63
2022-08-12T04:58:30.198Z,5.63
2022-08-12T04:59:30.001Z,5.63
2022-08-12T05:00:30.017Z,5.63
2022-08-12T05:01:29.974Z,5.63
2022-08-12T05:02:29.987Z,5.63
2022-08-12T05:03:46.629Z,5.63
2022-08-12T05:04:29.997Z,5.63
2022-08-12T05:05:35.237Z,5.63
2022-08-12T05:06:29.920Z,5.63
2022-08-12T05:07:29.912Z,5.63
2022-08-12T05:08:29.917Z,5.63
2022-08-12T05:09:55.260Z,5.63
2022-08-12T05:10:33.634Z,5.63
2022-08-12T05:11:29.863Z,5.63
2022-08-12T05:12:29.865Z,5.63
2022-08-12T05:13:29.843Z,5.63
2022-08-12T05:14:32.392Z,5.63
2022-08-12T05:15:29.829Z,5.63
2022-08-12T05:16:32.563Z,5.63
2022-08-12T05:17:29.800Z,5.63
2022-08-12T05:18:29.790Z,5.63
2022-08-12T05:19:29.778Z,5.63
2022-08-12T05:20:29.872Z,5.63
2022-08-12T05:21:29.754Z,5.63
2022-08-12T05:22:29.747Z,5.63
2022-08-12T05:23:29.737Z,5.63
2022-08-12T05:24:29.726Z,5.63
2022-08-12T05:25:29.741Z,5.63
2022-08-12T05:26:29.727Z,5.63
2022-08-12T05:27:29.692Z,5.63
2022-08-12T05:28:29.679Z,5.63
2022-08-12T05:30:06.982Z,5.63
2022-08-12T05:30:29.668Z,5.63
2022-08-12T05:31:47.713Z,5.63
2022-08-12T05:32:29.640Z,5.63
2022-08-12T05:33:29.626Z,5.63
2022-08-12T05:34:29.620Z,5.63
2022-08-12T05:35:29.610Z,5.63
2022-08-12T05:36:29.610Z,5.63
2022-08-12T05:37:29.582Z,5.63
2022-08-12T05:38:29.579Z,5.63
2022-08-12T05:39:29.572Z,5.63
2022-08-12T05:40:29.575Z,5.63
2022-08-12T05:41:29.535Z,5.63
2022-08-12T05:42:32.486Z,5.63
2022-08-12T05:43:29.530Z,5.63
2022-08-12T05:44:29.507Z,5.63
2022-08-12T05:45:29.523Z,5.63
2022-08-12T05:46:29.537Z,11.25
2022-08-12T05:47:38.463Z,11.25
2022-08-12T05:48:29.474Z,11.25
2022-08-12T05:49:29.451Z,11.25
2022-08-12T05:50:29.444Z,11.25
2022-08-12T05:51:38.605Z,11.25
2022-08-12T05:52:29.421Z,11.25
2022-08-12T05:53:29.409Z,11.25
2022-08-12T05:54:54.386Z,11.25
2022-08-12T05:55:31.329Z,11.25
2022-08-12T05:56:29.405Z,11.25
2022-08-12T05:57:29.369Z,11.25
2022-08-12T05:58:29.358Z,11.25
2022-08-12T05:59:29.362Z,11.25
2022-08-12T06:00:29.435Z,11.25
2022-08-12T06:02:10.637Z,11.25
2022-08-12T06:02:29.317Z,11.25
2022-08-12T06:03:29.336Z,11.25
2022-08-12T06:04:29.295Z,11.25
2022-08-12T06:05:29.307Z,11.25
2022-08-12T06:06:29.776Z,11.25
2022-08-12T06:08:00.003Z,11.25
2022-08-12T06:08:29.251Z,11.25
2022-08-12T06:09:29.239Z,11.25
2022-08-12T06:10:32.388Z,11.25
2022-08-12T06:11:29.249Z,11.25
2022-08-12T06:12:29.209Z,11.25
2022-08-12T06:13:54.241Z,11.25
2022-08-12T06:14:29.256Z,11.25
2022-08-12T06:15:29.216Z,11.25
2022-08-12T06:16:29.169Z,11.25
2022-08-12T06:17:29.186Z,11.25
2022-08-12T06:18:29.946Z,11.25
2022-08-12T06:20:26.015Z,11.25
2022-08-12T06:20:34.367Z,11.25
2022-08-12T06:21:29.143Z,11.25
2022-08-12T06:22:29.140Z,11.25
2022-08-12T06:23:29.105Z,11.25
2022-08-12T06:24:29.089Z,11.25
2022-08-12T06:25:29.118Z,11.25
2022-08-12T06:26:29.094Z,11.25
2022-08-12T06:27:29.061Z,11.25
2022-08-12T06:28:29.044Z,16.88
2022-08-12T06:30:07.391Z,16.88
2022-08-12T06:30:36.828Z,16.88
2022-08-12T06:31:29.043Z,16.88
2022-08-12T06:32:29.007Z,16.88
2022-08-12T06:33:59.817Z,16.88
2022-08-12T06:35:27.249Z,16.88
2022-08-12T06:35:48.932Z,16.88
2022-08-12T06:36:29.637Z,16.88
2022-08-12T06:37:28.960Z,16.88
2022-08-12T06:38:28.970Z,16.88
2022-08-12T06:39:29.042Z,16.88
2022-08-12T06:40:28.927Z,16.88
2022-08-12T06:41:28.913Z,16.88
2022-08-12T06:42:32.550Z,16.88
2022-08-12T06:43:29.284Z,16.88
2022-08-12T06:44:28.885Z,11.25
2022-08-12T06:45:45.212Z,11.25
2022-08-12T06:46:28.879Z,11.25
2022-08-12T06:47:28.884Z,16.88
2022-08-12T06:48:28.849Z,16.88
2022-08-12T06:49:28.837Z,16.88
2022-08-12T06:50:28.826Z,16.88
2022-08-12T06:51:28.817Z,16.88
2022-08-12T06:52:28.804Z,16.88
2022-08-12T06:53:28.800Z,16.88
2022-08-12T06:54:31.296Z,16.88
2022-08-12T06:55:28.779Z,16.88
2022-08-12T06:56:59.535Z,16.88
2022-08-12T06:58:06.071Z,16.88
2022-08-12T06:58:28.762Z,16.88
2022-08-12T06:59:28.738Z,16.88
2022-08-12T07:00:32.959Z,16.88
2022-08-12T07:01:28.821Z,16.88
2022-08-12T07:02:29.416Z,16.88
2022-08-12T07:03:28.718Z,16.88
2022-08-12T07:04:37.463Z,16.88
2022-08-12T07:05:28.784Z,16.88
2022-08-12T07:06:28.804Z,16.88
2022-08-12T07:07:28.714Z,16.88
2022-08-12T07:08:28.665Z,16.88
2022-08-12T07:10:01.582Z,16.88
2022-08-12T07:10:28.677Z,16.88
2022-08-12T07:11:28.698Z,16.88
2022-08-12T07:12:28.864Z,16.88
2022-08-12T07:13:28.601Z,16.88
2022-08-12T07:14:28.591Z,16.88
2022-08-12T07:15:28.613Z,16.88
2022-08-12T07:16:28.572Z,16.88
2022-08-12T07:17:28.565Z,16.88
2022-08-12T07:18:28.554Z,16.88
2022-08-12T07:19:40.539Z,16.88
2022-08-12T07:20:51.173Z,22.50
2022-08-12T07:21:59.630Z,16.88
2022-08-12T07:22:28.515Z,16.88
2022-08-12T07:23:28.504Z,16.88
2022-08-12T07:24:28.498Z,16.88
2022-08-12T07:25:28.488Z,16.88
2022-08-12T07:26:28.534Z,16.88
2022-08-12T07:27:28.467Z,16.88
2022-08-12T07:28:28.456Z,16.88
2022-08-12T07:29:58.182Z,16.88
2022-08-12T07:30:28.439Z,16.88
2022-08-12T07:31:28.435Z,16.88
2022-08-12T07:32:29.412Z,22.50
2022-08-12T07:33:28.411Z,16.88
2022-08-12T07:34:28.402Z,16.88
2022-08-12T07:35:28.393Z,16.88
2022-08-12T07:36:28.383Z,16.88
2022-08-12T07:37:28.391Z,22.50
2022-08-12T07:38:28.843Z,22.50
2022-08-12T07:39:28.419Z,22.50
2022-08-12T07:40:28.348Z,16.88
2022-08-12T07:41:28.341Z,16.88
2022-08-12T07:42:28.361Z,16.88
2022-08-12T07:43:28.365Z,16.88
2022-08-12T07:44:28.306Z,16.88
2022-08-12T07:45:28.313Z,16.88
2022-08-12T07:46:28.288Z,16.88
2022-08-12T07:47:28.283Z,16.88
2022-08-12T07:48:28.271Z,16.88
2022-08-12T07:49:28.293Z,16.88
2022-08-12T07:50:28.257Z,16.88
2022-08-12T07:51:28.265Z,16.88
2022-08-12T07:52:28.236Z,16.88
2022-08-12T07:53:28.228Z,16.88
2022-08-12T07:54:28.222Z,16.88
2022-08-12T07:55:28.249Z,16.88
2022-08-12T07:56:28.200Z,22.50
2022-08-12T07:57:28.194Z,22.50
2022-08-12T07:58:28.183Z,22.50
2022-08-12T07:59:28.174Z,22.50
2022-08-12T08:00:28.165Z,22.50
2022-08-12T08:01:28.343Z,22.50
2022-08-12T08:02:28.151Z,22.50
2022-08-12T08:03:28.143Z,22.50
2022-08-12T08:04:28.129Z,28.13
2022-08-12T08:05:28.119Z,28.13
2022-08-12T08:06:28.108Z,28.13
2022-08-12T08:07:28.130Z,28.13
2022-08-12T08:08:28.091Z,28.13
2022-08-12T08:09:28.086Z,28.13
2022-08-12T08:10:28.073Z,22.50
2022-08-12T08:11:28.072Z,39.38
2022-08-12T08:12:28.108Z,67.50
2022-08-12T08:13:28.050Z,78.75
2022-08-12T08:14:28.037Z,28.13
2022-08-12T08:15:51.284Z,28.13
2022-08-12T08:16:28.020Z,28.13
2022-08-12T08:17:28.012Z,28.13
2022-08-12T08:18:28.023Z,28.13
2022-08-12T08:19:27.998Z,73.13
2022-08-12T08:20:27.985Z,73.13
2022-08-12T08:21:27.989Z,33.75
2022-08-12T08:22:41.785Z,22.50
2022-08-12T08:23:29.420Z,22.50
2022-08-12T08:24:27.961Z,22.50
2022-08-12T08:25:35.984Z,22.50
2022-08-12T08:26:27.936Z,22.50
2022-08-12T08:27:27.935Z,22.50
2022-08-12T08:28:27.919Z,22.50
2022-08-12T08:29:27.914Z,39.38
2022-08-12T08:30:27.899Z,84.38
2022-08-12T08:31:27.895Z,78.75
2022-08-12T08:32:27.885Z,73.13
2022-08-12T08:34:05.041Z,39.38
2022-08-12T08:34:52.894Z,45.00
2022-08-12T08:35:28.135Z,33.75
2022-08-12T08:36:27.849Z,39.38
2022-08-12T08:37:32.851Z,28.13
2022-08-12T08:38:32.124Z,28.13
2022-08-12T08:39:27.896Z,22.50
2022-08-12T08:40:27.819Z,22.50
2022-08-12T08:42:13.895Z,28.13
2022-08-12T08:42:27.802Z,28.13
2022-08-12T08:43:27.799Z,28.13
2022-08-12T08:44:27.785Z,39.38
2022-08-12T08:45:27.782Z,45.00
2022-08-12T08:46:27.799Z,61.88
2022-08-12T08:47:27.771Z,45.00
2022-08-12T08:48:27.757Z,39.38
2022-08-12T08:49:27.751Z,39.38
2022-08-12T08:50:27.742Z,28.13
2022-08-12T08:51:27.836Z,22.50
2022-08-12T08:52:39.143Z,33.75
2022-08-12T08:53:27.719Z,33.75
2022-08-12T08:54:27.708Z,33.75
2022-08-12T08:55:47.949Z,33.75
2022-08-12T08:56:27.692Z,50.63
2022-08-12T08:57:43.655Z,67.50
2022-08-12T08:58:27.676Z,39.38
2022-08-12T08:59:27.670Z,45.00
2022-08-12T09:00:27.670Z,33.75
2022-08-12T09:01:37.810Z,33.75
2022-08-12T09:02:27.674Z,28.13
2022-08-12T09:05:11.235Z,28.13
2022-08-12T09:05:27.634Z,33.75
2022-08-12T09:06:37.414Z,28.13
2022-08-12T09:07:43.792Z,45.00
2022-08-12T09:08:27.938Z,28.13
2022-08-12T09:09:34.162Z,39.38
2022-08-12T09:10:31.153Z,28.13
2022-08-12T09:12:27.757Z,28.13
2022-08-12T09:13:29.166Z,28.13
2022-08-12T09:14:29.228Z,28.13
2022-08-12T09:16:27.545Z,28.13
2022-08-12T09:17:27.540Z,33.75
2022-08-12T09:19:28.044Z,28.13
2022-08-12T09:20:29.349Z,28.13
2022-08-12T09:21:27.510Z,28.13
2022-08-12T09:22:30.445Z,33.75
2022-08-12T09:23:58.522Z,45.00
2022-08-12T09:24:27.868Z,39.38
2022-08-12T09:25:33.342Z,33.75
2022-08-12T09:26:28.321Z,28.13
2022-08-12T09:27:30.786Z,28.13
2022-08-12T09:28:31.331Z,28.13
2022-08-12T09:30:11.235Z,28.13
2022-08-12T09:30:42.048Z,33.75
2022-08-12T09:32:06.297Z,39.38
2022-08-12T09:32:55.653Z,50.63
2022-08-12T09:34:27.803Z,61.88
2022-08-12T09:34:33.568Z,56.25
2022-08-12T09:35:28.463Z,45.00
2022-08-12T09:36:31.200Z,50.63
2022-08-12T09:37:27.407Z,45.00
2022-08-12T09:38:29.963Z,50.63
2022-08-12T09:40:02.394Z,50.63
2022-08-12T09:41:01.321Z,67.50
2022-08-12T09:42:08.911Z,140.63
2022-08-12T09:42:41.027Z,382.50
2022-08-12T09:43:27.930Z,556.88
2022-08-12T09:44:39.043Z,641.25
2022-08-12T09:46:19.569Z,652.50
2022-08-12T09:46:27.423Z,641.25
2022-08-12T09:47:29.308Z,601.88
2022-08-12T09:48:27.343Z,281.25
2022-08-12T09:49:27.325Z,292.50
2022-08-12T09:50:27.318Z,1096.88
2022-08-12T09:51:37.646Z,1816.88
2022-08-12T09:52:32.040Z,2266.88
2022-08-12T09:53:36.169Z,2244.38
2022-08-12T09:54:34.168Z,2255.63
2022-08-12T09:56:05.544Z,2272.50
2022-08-12T09:56:59.460Z,1389.38
2022-08-12T09:58:45.163Z,393.75
2022-08-12T09:58:56.892Z,506.25
2022-08-12T10:00:16.222Z,540.00
2022-08-12T10:00:28.895Z,315.00
2022-08-12T10:01:35.282Z,101.25
2022-08-12T10:02:44.333Z,1119.38
2022-08-12T10:03:31.845Z,1833.75
2022-08-12T10:04:27.416Z,1760.63
2022-08-12T10:06:20.045Z,2289.38
2022-08-12T10:06:32.316Z,2812.50
2022-08-12T10:07:28.676Z,2621.25
2022-08-12T10:08:27.304Z,1710.00
2022-08-12T10:09:28.701Z,888.75
2022-08-12T10:10:30.214Z,298.13
2022-08-12T10:11:27.260Z,382.50
2022-08-12T10:12:31.157Z,877.50
2022-08-12T10:13:35.709Z,798.75
2022-08-12T10:14:36.761Z,365.63
2022-08-12T10:16:02.925Z,433.13
2022-08-12T10:16:27.380Z,438.75
2022-08-12T10:17:27.246Z,365.63
2022-08-12T10:18:27.221Z,393.75
2022-08-12T10:19:36.502Z,1080.00
2022-08-12T10:20:27.220Z,1456.88
2022-08-12T10:21:36.493Z,1704.38
2022-08-12T10:22:40.241Z,1501.88
2022-08-12T10:23:40.169Z,1012.50
2022-08-12T10:24:27.208Z,765.00
2022-08-12T10:26:35.367Z,450.00
2022-08-12T10:26:37.228Z,270.00
2022-08-12T10:27:28.042Z,213.75
2022-08-12T10:28:27.203Z,258.75
2022-08-12T10:30:37.150Z,337.50
2022-08-12T10:30:41.842Z,281.25
2022-08-12T10:31:27.215Z,157.50
2022-08-12T10:32:44.009Z,151.88
2022-08-12T10:33:31.001Z,247.50
2022-08-12T10:34:27.337Z,163.13
2022-08-12T10:35:27.193Z,95.63
2022-08-12T10:36:40.218Z,33.75
2022-08-12T10:38:33.496Z,56.25
2022-08-12T10:38:39.191Z,50.63
2022-08-12T10:40:00.655Z,33.75
2022-08-12T10:40:32.290Z,33.75
2022-08-12T10:41:58.731Z,33.75
2022-08-12T10:42:45.917Z,39.38
2022-08-12T10:43:27.173Z,45.00
2022-08-12T10:44:27.165Z,39.38
2022-08-12T10:45:27.162Z,39.38
2022-08-12T10:46:31.314Z,33.75
2022-08-12T10:48:15.920Z,33.75
2022-08-12T10:48:33.945Z,28.13
2022-08-12T10:50:03.422Z,28.13
2022-08-12T10:50:29.514Z,33.75
2022-08-12T10:52:04.740Z,39.38
2022-08-12T10:52:33.987Z,56.25
2022-08-12T10:53:46.135Z,56.25
2022-08-12T10:54:27.160Z,39.38
2022-08-12T10:55:27.124Z,33.75
2022-08-12T10:56:27.121Z,33.75
2022-08-12T10:58:13.608Z,39.38
2022-08-12T10:58:30.782Z,39.38
2022-08-12T10:59:58.024Z,45.00
2022-08-12T11:00:30.565Z,33.75
2022-08-12T11:04:16.651Z,61.88
2022-08-12T11:04:24.604Z,56.25
2022-08-12T11:04:26.118Z,84.38
2022-08-12T11:04:41.492Z,28.13
2022-08-12T11:07:03.760Z,28.13
2022-08-12T11:07:07.719Z,28.13
2022-08-12T11:08:34.618Z,33.75
2022-08-12T11:08:37.714Z,28.13
2022-08-12T11:09:55.687Z,28.13
2022-08-12T11:10:27.108Z,28.13
2022-08-12T11:12:08.482Z,28.13
2022-08-12T11:12:56.222Z,33.75
2022-08-12T11:13:48.308Z,33.75
2022-08-12T11:14:50.136Z,28.13
2022-08-12T11:16:02.477Z,28.13
2022-08-12T11:16:27.030Z,28.13
2022-08-12T11:17:53.403Z,33.75
2022-08-12T11:18:27.011Z,45.00
2022-08-12T11:19:27.005Z,39.38
2022-08-12T11:20:28.963Z,33.75
2022-08-12T11:21:51.147Z,45.00
2022-08-12T11:22:26.995Z,45.00
2022-08-12T11:23:36.628Z,33.75
2022-08-12T11:24:32.038Z,33.75
2022-08-12T11:25:56.763Z,39.38
2022-08-12T11:26:26.993Z,39.38
2022-08-12T11:27:29.457Z,84.38
2022-08-12T11:28:33.277Z,168.75
2022-08-12T11:29:26.970Z,196.88
2022-08-12T11:30:31.550Z,219.38
2022-08-12T11:31:26.960Z,225.00
2022-08-12T11:32:26.961Z,157.50
2022-08-12T11:34:06.099Z,95.63
2022-08-12T11:34:53.341Z,180.00
2022-08-12T11:35:26.953Z,135.00
2022-08-12T11:36:26.895Z,84.38
2022-08-12T11:37:27.014Z,112.50
2022-08-12T11:38:26.882Z,112.50
2022-08-12T11:40:26.987Z,45.00
2022-08-12T11:41:31.435Z,45.00
2022-08-12T11:42:32.535Z,56.25
2022-08-12T11:43:26.863Z,50.63
2022-08-12T11:44:36.966Z,45.00
2022-08-12T11:45:26.872Z,39.38
2022-08-12T11:46:26.888Z,45.00
2022-08-12T11:47:26.850Z,45.00
2022-08-12T11:48:27.330Z,61.88
2022-08-12T11:49:32.011Z,101.25
2022-08-12T11:50:32.207Z,196.88
2022-08-12T11:51:26.832Z,264.38
2022-08-12T11:52:36.653Z,517.50
2022-08-12T11:53:57.284Z,191.25
2022-08-12T11:54:29.750Z,191.25
2022-08-12T11:55:27.537Z,191.25
2022-08-12T11:56:38.530Z,157.50
2022-08-12T11:58:10.064Z,427.50
2022-08-12T11:59:11.337Z,191.25
2022-08-12T12:02:02.603Z,101.25
2022-08-12T12:02:26.826Z,101.25
2022-08-12T12:03:43.901Z,613.13
2022-08-12T12:04:29.503Z,73.13
2022-08-12T12:05:28.340Z,601.88
2022-08-12T12:06:26.797Z,90.00
2022-08-12T12:08:36.135Z,67.50
2022-08-12T12:08:38.901Z,67.50
2022-08-12T12:09:26.827Z,112.50
2022-08-12T12:10:26.815Z,191.25
2022-08-12T12:11:26.786Z,320.63
2022-08-12T12:12:26.809Z,146.25
2022-08-12T12:14:07.601Z,84.38
2022-08-12T12:14:37.847Z,61.88
2022-08-12T12:15:41.309Z,135.00
2022-08-12T12:16:26.780Z,106.88
2022-08-12T12:17:26.777Z,45.00
2022-08-12T12:18:31.009Z,39.38
2022-08-12T12:19:26.835Z,39.38
2022-08-12T12:20:30.508Z,39.38
2022-08-12T12:21:48.308Z,39.38
2022-08-12T12:22:30.940Z,33.75
2022-08-12T12:23:28.992Z,39.38
2022-08-12T12:24:26.759Z,39.38
2022-08-12T12:26:07.081Z,39.38
2022-08-12T12:26:35.076Z,33.75
2022-08-12T12:27:37.605Z,33.75
2022-08-12T12:28:36.832Z,33.75
2022-08-12T12:30:13.228Z,33.75
2022-08-12T12:30:30.235Z,33.75
2022-08-12T12:32:09.940Z,33.75
2022-08-12T12:32:53.102Z,33.75
2022-08-12T12:33:26.734Z,33.75
2022-08-12T12:34:30.180Z,33.75
2022-08-12T12:36:18.158Z,33.75
2022-08-12T12:36:30.117Z,33.75
2022-08-12T12:37:59.082Z,33.75
2022-08-12T12:38:26.722Z,33.75
2022-08-12T12:39:26.753Z,33.75
2022-08-12T12:40:29.797Z,39.38
2022-08-12T12:42:43.311Z,45.00
2022-08-12T12:42:47.638Z,50.63
2022-08-12T12:43:28.837Z,45.00
2022-08-12T12:44:38.696Z,50.63
2022-08-12T12:45:26.693Z,45.00
2022-08-12T12:46:26.738Z,45.00
2022-08-12T12:47:29.251Z,45.00
2022-08-12T12:48:26.677Z,45.00
2022-08-12T12:49:27.622Z,45.00
2022-08-12T12:50:35.560Z,39.38
2022-08-12T12:52:17.262Z,39.38
2022-08-12T12:52:26.948Z,39.38
2022-08-12T12:54:07.666Z,39.38
2022-08-12T12:54:29.069Z,39.38
2022-08-12T12:55:26.648Z,45.00
2022-08-12T12:56:33.802Z,39.38
2022-08-12T12:57:59.254Z,39.38
2022-08-12T12:58:26.638Z,39.38
2022-08-12T12:59:55.079Z,39.38
2022-08-12T13:00:26.640Z,39.38
2022-08-12T13:01:31.896Z,39.38
2022-08-12T13:02:31.429Z,45.00
2022-08-12T13:03:26.621Z,39.38
2022-08-12T13:04:26.608Z,39.38
2022-08-12T13:05:28.055Z,39.38
2022-08-12T13:06:30.032Z,33.75
2022-08-12T13:07:54.762Z,33.75